Time;durP1;ratioP1;P1;durP2;ratioP2;P2;SDS_P1;SDS_P2;PMS_P1;PMS_P2;Temp;Humidity;BMP_temperature;BMP_pressure;BME280_temperature;BME280_humidity;BME280_pressure;Samples;Min_cycle;Max_cycle;Signal;HPM_P1;HPM_P2
2022/12/02 00:01:17;;;;;;;40.17;16.75;;;;;;;;;;7389970;19;20482;-78
2022/12/02 00:03:43;;;;;;;36.97;16.45;;;;;;;;;;7390753;19;19999;-77
2022/12/02 00:06:25;;;;;;;42.83;16.00;;;;;;;;;;7390302;19;20002;-77
2022/12/02 00:08:52;;;;;;;37.67;15.15;;;;;;;;;;7394726;19;20407;-77
2022/12/02 00:11:29;;;;;;;36.08;14.43;;;;;;;;;;7393124;19;20091;-78
2022/12/02 00:13:57;;;;;;;37.42;15.65;;;;;;;;;;7394031;19;20017;-78
2022/12/02 00:16:24;;;;;;;43.75;16.15;;;;;;;;;;7394487;19;20030;-79
2022/12/02 00:18:52;;;;;;;42.08;15.52;;;;;;;;;;7393979;19;20022;-78
2022/12/02 00:21:19;;;;;;;36.08;14.90;;;;;;;;;;7394633;19;20093;-77
2022/12/02 00:23:44;;;;;;;36.30;14.25;;;;;;;;;;7392949;19;20018;-78
2022/12/02 00:26:10;;;;;;;36.42;15.30;;;;;;;;;;7398266;19;20002;-78
2022/12/02 00:28:35;;;;;;;42.88;15.27;;;;;;;;;;7398496;19;20485;-78
2022/12/02 00:31:00;;;;;;;36.42;15.13;;;;;;;;;;7397231;19;20006;-78
2022/12/02 00:33:26;;;;;;;38.08;14.93;;;;;;;;;;7396504;19;19999;-78
2022/12/02 00:35:51;;;;;;;40.05;16.80;;;;;;;;;;7395852;19;20115;-78
2022/12/02 00:38:16;;;;;;;34.95;15.40;;;;;;;;;;7397294;19;20443;-80
2022/12/02 00:40:42;;;;;;;38.95;16.10;;;;;;;;;;7397795;19;19991;-77
2022/12/02 00:48:35;;;;;;;38.22;15.13;;;;;;;;;;7398124;19;20112;-78
2022/12/02 00:51:01;;;;;;;44.20;16.33;;;;;;;;;;7397629;19;19995;-78
2022/12/02 00:53:26;;;;;;;39.75;16.23;;;;;;;;;;7397695;19;20006;-78
2022/12/02 00:55:52;;;;;;;39.80;16.15;;;;;;;;;;7397151;19;20067;-78
2022/12/02 00:58:17;;;;;;;37.08;14.95;;;;;;;;;;7397593;19;19999;-78
2022/12/02 01:00:42;;;;;;;40.40;17.38;;;;;;;;;;7394179;19;19995;-78
2022/12/02 01:03:08;;;;;;;39.72;16.17;;;;;;;;;;7395497;19;20353;-78
2022/12/02 01:05:34;;;;;;;43.58;16.20;;;;;;;;;;7396682;19;19999;-78
2022/12/02 01:07:59;;;;;;;51.70;17.90;;;;;;;;;;7394670;19;20359;-79
2022/12/02 01:10:24;;;;;;;42.72;16.88;;;;;;;;;;7393021;19;20002;-78
2022/12/02 01:12:50;;;;;;;39.47;16.52;;;;;;;;;;7393931;19;20627;-79
2022/12/02 01:15:15;;;;;;;50.70;16.95;;;;;;;;;;7393463;19;20065;-78
2022/12/02 01:17:40;;;;;;;41.30;16.48;;;;;;;;;;7393768;19;20029;-78
2022/12/02 01:20:06;;;;;;;46.55;17.98;;;;;;;;;;7399197;19;20063;-79
2022/12/02 01:22:32;;;;;;;34.55;14.63;;;;;;;;;;7393635;19;20109;-79
2022/12/02 01:24:57;;;;;;;40.85;15.98;;;;;;;;;;7395209;19;20002;-79
2022/12/02 01:27:23;;;;;;;39.92;15.57;;;;;;;;;;7393911;19;19991;-78
2022/12/02 01:29:48;;;;;;;44.67;15.95;;;;;;;;;;7396315;19;19995;-77
2022/12/02 01:32:14;;;;;;;39.50;16.00;;;;;;;;;;7396513;19;20010;-79
2022/12/02 01:34:41;;;;;;;35.42;15.75;;;;;;;;;;7395830;19;19998;-79
2022/12/02 01:37:06;;;;;;;37.20;15.27;;;;;;;;;;7393933;19;20038;-78
2022/12/02 01:39:31;;;;;;;37.25;16.27;;;;;;;;;;7394037;19;20481;-78
2022/12/02 01:41:58;;;;;;;42.67;17.38;;;;;;;;;;7394289;19;19999;-78
2022/12/02 01:44:23;;;;;;;43.65;16.13;;;;;;;;;;7395415;19;19999;-79
2022/12/02 01:46:49;;;;;;;43.90;16.55;;;;;;;;;;7394593;19;20449;-79
2022/12/02 01:49:14;;;;;;;38.00;16.58;;;;;;;;;;7395790;19;20029;-78
2022/12/02 01:51:40;;;;;;;41.58;16.30;;;;;;;;;;7395826;19;20002;-79
2022/12/02 01:54:06;;;;;;;45.83;17.15;;;;;;;;;;7395081;19;19994;-78
2022/12/02 01:56:31;;;;;;;43.22;17.83;;;;;;;;;;7393109;19;20374;-78
2022/12/02 01:58:56;;;;;;;40.97;16.83;;;;;;;;;;7394306;19;20023;-78
2022/12/02 02:01:29;;;;;;;40.72;16.15;;;;;;;;;;7394349;19;19999;-78
2022/12/02 02:03:55;;;;;;;43.15;15.60;;;;;;;;;;7394956;19;19988;-77
2022/12/02 02:06:22;;;;;;;44.70;16.92;;;;;;;;;;7394128;19;20005;-77
2022/12/02 02:08:47;;;;;;;42.45;17.33;;;;;;;;;;7395012;19;20344;-78
2022/12/02 02:11:13;;;;;;;39.63;16.10;;;;;;;;;;7395181;19;19995;-78
2022/12/02 02:13:38;;;;;;;39.17;16.13;;;;;;;;;;7394648;19;19995;-78
2022/12/02 02:16:04;;;;;;;41.17;15.13;;;;;;;;;;7396196;19;20023;-78
2022/12/02 02:18:29;;;;;;;36.45;14.85;;;;;;;;;;7393792;19;19991;-78
2022/12/02 02:20:57;;;;;;;41.42;15.68;;;;;;;;;;7394864;19;19998;-78
2022/12/02 02:23:24;;;;;;;39.17;15.88;;;;;;;;;;7397726;19;20503;-78
2022/12/02 02:25:56;;;;;;;42.22;16.50;;;;;;;;;;7393588;19;20003;-79
2022/12/02 02:28:25;;;;;;;41.35;15.50;;;;;;;;;;7394406;19;20070;-78
2022/12/02 02:30:53;;;;;;;44.47;16.75;;;;;;;;;;7392953;19;19994;-78
2022/12/02 02:33:20;;;;;;;41.75;16.27;;;;;;;;;;7392252;19;20334;-78
2022/12/02 02:35:46;;;;;;;43.72;17.23;;;;;;;;;;7391999;19;19991;-77
2022/12/02 02:38:15;;;;;;;41.70;16.35;;;;;;;;;;7394055;19;20334;-78
2022/12/02 02:40:41;;;;;;;40.75;16.27;;;;;;;;;;7393903;19;20085;-78
2022/12/02 02:43:08;;;;;;;36.17;15.82;;;;;;;;;;7393428;19;20487;-78
2022/12/02 02:45:36;;;;;;;41.13;15.95;;;;;;;;;;7393541;19;20002;-78
2022/12/02 02:48:04;;;;;;;38.25;15.95;;;;;;;;;;7392394;19;20472;-78
2022/12/02 02:50:30;;;;;;;42.35;15.70;;;;;;;;;;7394399;19;19999;-79
2022/12/02 02:52:56;;;;;;;36.25;15.95;;;;;;;;;;7393873;19;20071;-78
2022/12/02 02:55:25;;;;;;;36.08;14.85;;;;;;;;;;7397302;19;20360;-78
2022/12/02 02:57:51;;;;;;;40.28;15.43;;;;;;;;;;7393150;19;19994;-78
2022/12/02 03:00:18;;;;;;;41.20;14.65;;;;;;;;;;7393857;19;20050;-78
2022/12/02 03:02:46;;;;;;;46.33;16.90;;;;;;;;;;7395583;19;19994;-77
2022/12/02 03:05:12;;;;;;;37.80;14.88;;;;;;;;;;7395656;19;19998;-78
2022/12/02 03:07:37;;;;;;;34.40;13.95;;;;;;;;;;7395330;19;20001;-79
2022/12/02 03:10:05;;;;;;;35.38;15.65;;;;;;;;;;7394431;19;20386;-77
2022/12/02 03:12:30;;;;;;;33.80;14.93;;;;;;;;;;7392868;19;20002;-77
2022/12/02 03:14:56;;;;;;;39.13;16.02;;;;;;;;;;7392466;19;19999;-78
2022/12/02 03:17:22;;;;;;;42.17;15.13;;;;;;;;;;7391450;19;19998;-78
2022/12/02 03:19:47;;;;;;;41.47;15.23;;;;;;;;;;7393648;19;20015;-78
2022/12/02 03:22:13;;;;;;;43.00;15.45;;;;;;;;;;7392702;19;19995;-79
2022/12/02 03:24:39;;;;;;;43.50;16.42;;;;;;;;;;7392128;19;20002;-78
2022/12/02 03:27:06;;;;;;;38.42;14.45;;;;;;;;;;7389365;19;20504;-77
2022/12/02 03:29:32;;;;;;;39.38;14.93;;;;;;;;;;7392531;19;19995;-77
2022/12/02 03:31:59;;;;;;;44.85;16.08;;;;;;;;;;7392383;19;19998;-79
2022/12/02 03:34:25;;;;;;;45.53;16.45;;;;;;;;;;7391853;19;20007;-77
2022/12/02 03:36:51;;;;;;;36.03;15.70;;;;;;;;;;7388372;19;20343;-72
2022/12/02 03:39:16;;;;;;;48.33;15.50;;;;;;;;;;7388656;19;20054;-73
2022/12/02 03:41:43;;;;;;;41.63;16.95;;;;;;;;;;7391481;19;20011;-73
2022/12/02 03:44:09;;;;;;;35.53;14.13;;;;;;;;;;7391202;19;20003;-74
2022/12/02 03:46:34;;;;;;;40.00;15.70;;;;;;;;;;7388649;19;20033;-73
2022/12/02 03:49:01;;;;;;;41.50;15.27;;;;;;;;;;7391529;19;19994;-73
2022/12/02 03:51:27;;;;;;;43.78;14.95;;;;;;;;;;7389456;19;20001;-74
2022/12/02 03:53:52;;;;;;;42.88;16.20;;;;;;;;;;7390534;19;20062;-74
2022/12/02 03:56:18;;;;;;;49.08;16.40;;;;;;;;;;7391331;19;19995;-73
2022/12/02 03:58:49;;;;;;;44.47;15.23;;;;;;;;;;7388398;19;20376;-73
2022/12/02 04:01:15;;;;;;;53.60;16.40;;;;;;;;;;7389155;19;20018;-73
2022/12/02 04:03:40;;;;;;;44.45;16.00;;;;;;;;;;7390193;19;20519;-72
2022/12/02 04:06:06;;;;;;;40.50;14.77;;;;;;;;;;7390220;19;20003;-72
2022/12/02 04:08:31;;;;;;;45.08;15.30;;;;;;;;;;7390634;19;20019;-72
2022/12/02 04:10:57;;;;;;;38.42;14.55;;;;;;;;;;7388972;19;19990;-72
2022/12/02 04:13:22;;;;;;;47.17;15.80;;;;;;;;;;7390291;19;20022;-72
2022/12/02 04:15:47;;;;;;;34.85;15.07;;;;;;;;;;7392542;19;19995;-73
2022/12/02 04:18:13;;;;;;;44.85;15.45;;;;;;;;;;7389933;19;19991;-73
2022/12/02 04:20:38;;;;;;;42.10;14.68;;;;;;;;;;7389417;19;19998;-72
2022/12/02 04:23:04;;;;;;;40.90;16.00;;;;;;;;;;7389664;19;20054;-73
2022/12/02 04:25:29;;;;;;;38.13;15.75;;;;;;;;;;7388346;19;20354;-73
2022/12/02 04:27:54;;;;;;;44.17;17.15;;;;;;;;;;7390152;19;19995;-73
2022/12/02 04:30:20;;;;;;;40.08;15.73;;;;;;;;;;7390164;19;20015;-73
2022/12/02 04:32:45;;;;;;;41.40;15.35;;;;;;;;;;7389406;19;19998;-73
2022/12/02 04:35:10;;;;;;;39.13;15.10;;;;;;;;;;7389931;19;19995;-73
2022/12/02 04:37:36;;;;;;;40.83;15.00;;;;;;;;;;7387366;19;20122;-73
2022/12/02 04:40:01;;;;;;;37.78;15.90;;;;;;;;;;7388114;19;19991;-73
2022/12/02 04:42:26;;;;;;;43.10;15.85;;;;;;;;;;7389874;19;20008;-73
2022/12/02 04:44:52;;;;;;;41.72;16.35;;;;;;;;;;7389687;19;19991;-73
2022/12/02 04:47:17;;;;;;;43.78;15.40;;;;;;;;;;7388215;19;20002;-73
2022/12/02 04:49:42;;;;;;;39.75;16.17;;;;;;;;;;7389665;19;19995;-73
2022/12/02 04:52:08;;;;;;;36.60;14.48;;;;;;;;;;7393479;19;20011;-73
2022/12/02 04:54:33;;;;;;;34.22;14.77;;;;;;;;;;7389171;19;20027;-73
2022/12/02 04:56:58;;;;;;;37.55;14.93;;;;;;;;;;7388261;19;19998;-73
2022/12/02 04:59:23;;;;;;;39.90;15.50;;;;;;;;;;7388197;19;19990;-73
2022/12/02 05:01:49;;;;;;;40.25;14.77;;;;;;;;;;7389695;19;19998;-73
2022/12/02 05:04:14;;;;;;;40.33;15.45;;;;;;;;;;7388845;19;20003;-73
2022/12/02 05:06:39;;;;;;;40.63;13.38;;;;;;;;;;7388243;19;19998;-74
2022/12/02 05:09:05;;;;;;;42.63;15.70;;;;;;;;;;7389206;19;20019;-73
2022/12/02 05:11:30;;;;;;;39.10;16.13;;;;;;;;;;7393640;19;20023;-72
2022/12/02 05:13:55;;;;;;;34.70;15.50;;;;;;;;;;7396227;19;20014;-74
2022/12/02 05:16:21;;;;;;;38.75;14.57;;;;;;;;;;7395615;19;20448;-73
2022/12/02 05:18:46;;;;;;;42.90;15.10;;;;;;;;;;7394229;19;19991;-73
2022/12/02 05:21:11;;;;;;;37.78;15.15;;;;;;;;;;7399821;19;20010;-73
2022/12/02 05:23:37;;;;;;;36.65;14.90;;;;;;;;;;7395652;19;20002;-72
2022/12/02 05:26:02;;;;;;;38.80;15.68;;;;;;;;;;7393971;19;20084;-72
2022/12/02 05:28:27;;;;;;;38.83;15.38;;;;;;;;;;7394799;19;19994;-73
2022/12/02 05:30:53;;;;;;;41.67;16.17;;;;;;;;;;7393908;19;19998;-73
2022/12/02 05:33:18;;;;;;;42.13;15.40;;;;;;;;;;7398627;19;19998;-72
2022/12/02 05:35:44;;;;;;;40.85;16.05;;;;;;;;;;7392493;19;20019;-73
2022/12/02 05:38:09;;;;;;;31.10;13.43;;;;;;;;;;7389584;19;19994;-73
2022/12/02 05:40:34;;;;;;;38.38;14.63;;;;;;;;;;7393694;19;20019;-73
2022/12/02 05:43:23;;;;;;;36.75;14.98;;;;;;;;;;7394481;19;20015;-73
2022/12/02 05:45:48;;;;;;;41.38;14.68;;;;;;;;;;7396851;19;20456;-73
2022/12/02 05:48:16;;;;;;;39.35;14.85;;;;;;;;;;7398262;19;19991;-73
2022/12/02 05:50:43;;;;;;;43.05;16.08;;;;;;;;;;7397662;19;19995;-74
2022/12/02 05:53:22;;;;;;;41.53;15.93;;;;;;;;;;7396622;19;20444;-72
2022/12/02 05:55:48;;;;;;;39.63;14.80;;;;;;;;;;7391073;19;20467;-72
2022/12/02 05:58:15;;;;;;;36.63;14.32;;;;;;;;;;7392934;19;20019;-73
2022/12/02 06:00:40;;;;;;;38.47;14.68;;;;;;;;;;7391897;19;20057;-72
2022/12/02 06:03:14;;;;;;;40.72;15.48;;;;;;;;;;7394091;19;20008;-72
2022/12/02 06:05:41;;;;;;;42.55;15.85;;;;;;;;;;7392524;19;20071;-72
2022/12/02 06:08:18;;;;;;;39.47;14.45;;;;;;;;;;7394213;19;19995;-73
2022/12/02 06:10:58;;;;;;;35.42;14.48;;;;;;;;;;7392069;19;20003;-72
2022/12/02 06:13:28;;;;;;;40.38;14.75;;;;;;;;;;7392672;19;20361;-72
2022/12/02 06:15:54;;;;;;;34.80;14.07;;;;;;;;;;7393076;19;20002;-72
2022/12/02 06:18:22;;;;;;;44.95;17.15;;;;;;;;;;7393929;19;20492;-72
2022/12/02 06:20:52;;;;;;;39.97;15.73;;;;;;;;;;7391360;19;19994;-72
2022/12/02 06:23:19;;;;;;;39.42;15.10;;;;;;;;;;7389484;19;19994;-72
2022/12/02 06:25:47;;;;;;;41.60;16.13;;;;;;;;;;7392963;19;19999;-72
2022/12/02 06:28:18;;;;;;;39.53;15.02;;;;;;;;;;7391936;19;20002;-72
2022/12/02 06:30:43;;;;;;;35.65;14.75;;;;;;;;;;7386440;19;20019;-73
2022/12/02 06:33:24;;;;;;;38.78;15.65;;;;;;;;;;7384622;19;20370;-73
2022/12/02 06:35:52;;;;;;;37.00;16.20;;;;;;;;;;7391175;19;20030;-73
2022/12/02 06:38:34;;;;;;;48.47;16.63;;;;;;;;;;7393781;19;20821;-73
2022/12/02 06:41:09;;;;;;;32.05;11.90;;;;;;;;;;7391981;19;20026;-73
2022/12/02 06:43:35;;;;;;;30.27;10.82;;;;;;;;;;7392115;19;20012;-73
2022/12/02 06:46:00;;;;;;;27.67;11.45;;;;;;;;;;7392673;19;20003;-73
2022/12/02 06:48:39;;;;;;;35.92;12.65;;;;;;;;;;7393993;19;19995;-73
2022/12/02 06:51:19;;;;;;;33.72;12.45;;;;;;;;;;7392006;19;20002;-73
2022/12/02 06:53:45;;;;;;;33.47;12.02;;;;;;;;;;7391878;19;20489;-73
2022/12/02 06:56:30;;;;;;;28.23;10.15;;;;;;;;;;7392180;19;20497;-73
2022/12/02 06:59:03;;;;;;;30.75;10.07;;;;;;;;;;7389835;19;20024;-73
2022/12/02 07:01:37;;;;;;;24.83;11.02;;;;;;;;;;7390115;19;20028;-73
2022/12/02 07:04:08;;;;;;;26.48;9.40;;;;;;;;;;7391834;19;20054;-73
2022/12/02 07:06:48;;;;;;;31.08;10.77;;;;;;;;;;7392721;19;20350;-73
2022/12/02 07:09:18;;;;;;;33.33;10.25;;;;;;;;;;7391291;19;20006;-73
2022/12/02 07:11:50;;;;;;;36.13;11.07;;;;;;;;;;7391773;19;20463;-73
2022/12/02 07:14:18;;;;;;;33.05;10.43;;;;;;;;;;7392158;19;19995;-73
2022/12/02 07:16:44;;;;;;;21.75;10.32;;;;;;;;;;7388486;19;20008;-73
2022/12/02 07:19:17;;;;;;;28.92;11.20;;;;;;;;;;7389203;19;19994;-73
2022/12/02 07:21:42;;;;;;;26.65;10.70;;;;;;;;;;7392286;19;20030;-73
2022/12/02 07:24:17;;;;;;;27.63;11.50;;;;;;;;;;7392112;19;20026;-73
2022/12/02 07:26:45;;;;;;;25.90;10.48;;;;;;;;;;7387228;19;20006;-73
2022/12/02 07:29:15;;;;;;;27.77;11.10;;;;;;;;;;7390694;19;20003;-73
2022/12/02 07:31:43;;;;;;;28.25;10.25;;;;;;;;;;7382939;19;20002;-73
2022/12/02 07:34:11;;;;;;;28.42;11.27;;;;;;;;;;7389309;19;20342;-73
2022/12/02 07:36:36;;;;;;;33.25;11.25;;;;;;;;;;7390683;19;20030;-73
2022/12/02 07:39:01;;;;;;;23.98;9.52;;;;;;;;;;7391113;19;19999;-73
2022/12/02 07:41:27;;;;;;;32.13;10.60;;;;;;;;;;7390827;19;20058;-73
2022/12/02 07:43:53;;;;;;;28.08;10.35;;;;;;;;;;7390778;19;20293;-73
2022/12/02 07:46:19;;;;;;;25.33;10.30;;;;;;;;;;7391225;19;19995;-74
2022/12/02 07:48:44;;;;;;;29.88;10.32;;;;;;;;;;7391520;19;20344;-73
2022/12/02 07:51:10;;;;;;;24.52;11.18;;;;;;;;;;7390661;19;19998;-73
2022/12/02 07:53:35;;;;;;;21.98;9.90;;;;;;;;;;7390865;19;20001;-72
2022/12/02 07:56:00;;;;;;;27.75;10.45;;;;;;;;;;7390979;19;20066;-74
2022/12/02 07:58:26;;;;;;;17.48;8.13;;;;;;;;;;7391187;19;19991;-73
2022/12/02 08:00:51;;;;;;;24.58;9.70;;;;;;;;;;7389253;19;19994;-72
2022/12/02 08:03:17;;;;;;;20.00;8.50;;;;;;;;;;7389586;19;20010;-73
2022/12/02 08:05:42;;;;;;;20.60;8.77;;;;;;;;;;7389224;19;20022;-73
2022/12/02 08:08:07;;;;;;;27.05;9.55;;;;;;;;;;7389280;19;20439;-72
2022/12/02 08:10:33;;;;;;;26.20;10.13;;;;;;;;;;7391625;19;20006;-75
2022/12/02 08:12:58;;;;;;;25.05;9.73;;;;;;;;;;7386143;19;20007;-74
2022/12/02 08:15:23;;;;;;;27.00;9.27;;;;;;;;;;7391369;19;20019;-74
2022/12/02 08:17:49;;;;;;;24.75;8.52;;;;;;;;;;7386625;19;20484;-72
2022/12/02 08:20:14;;;;;;;20.88;9.35;;;;;;;;;;7388527;19;19999;-74
2022/12/02 08:22:39;;;;;;;19.33;8.85;;;;;;;;;;7390000;19;20006;-72
2022/12/02 08:25:05;;;;;;;27.08;8.40;;;;;;;;;;7389603;19;19995;-73
2022/12/02 08:27:31;;;;;;;21.65;9.07;;;;;;;;;;7387771;19;20009;-73
2022/12/02 08:29:56;;;;;;;20.15;8.95;;;;;;;;;;7385422;19;20070;-73
2022/12/02 08:32:21;;;;;;;18.65;8.57;;;;;;;;;;7385340;19;20028;-73
2022/12/02 08:34:47;;;;;;;18.52;8.27;;;;;;;;;;7388545;19;20132;-73
2022/12/02 08:37:13;;;;;;;22.70;8.00;;;;;;;;;;7388166;19;19998;-73
2022/12/02 08:39:39;;;;;;;23.55;9.65;;;;;;;;;;7386750;19;20059;-74
2022/12/02 08:42:05;;;;;;;19.15;8.20;;;;;;;;;;7389240;19;20108;-74
2022/12/02 08:44:31;;;;;;;21.30;8.15;;;;;;;;;;7388912;19;20002;-73
2022/12/02 08:46:56;;;;;;;23.55;8.88;;;;;;;;;;7392111;19;20333;-72
2022/12/02 08:49:22;;;;;;;20.35;8.32;;;;;;;;;;7394744;19;19998;-74
2022/12/02 08:51:47;;;;;;;23.50;9.38;;;;;;;;;;7396468;19;20003;-74
2022/12/02 08:54:14;;;;;;;18.10;7.95;;;;;;;;;;7395694;19;20038;-73
2022/12/02 08:56:40;;;;;;;19.92;7.50;;;;;;;;;;7396220;19;20766;-72
2022/12/02 08:59:05;;;;;;;20.08;7.78;;;;;;;;;;7393582;19;20514;-73
2022/12/02 09:01:30;;;;;;;20.55;8.73;;;;;;;;;;7395739;19;19998;-73
2022/12/02 09:03:56;;;;;;;16.83;8.48;;;;;;;;;;7395852;19;20014;-73
2022/12/02 09:06:21;;;;;;;17.02;7.15;;;;;;;;;;7395476;19;20023;-72
2022/12/02 09:08:46;;;;;;;13.73;7.03;;;;;;;;;;7392554;19;20020;-73
2022/12/02 09:11:12;;;;;;;14.25;6.25;;;;;;;;;;7395709;19;19998;-72
2022/12/02 09:13:37;;;;;;;15.05;6.07;;;;;;;;;;7394479;19;20069;-74
2022/12/02 09:16:02;;;;;;;18.42;7.60;;;;;;;;;;7394540;19;20013;-72
2022/12/02 09:18:28;;;;;;;15.45;7.13;;;;;;;;;;7380020;19;20037;-71
2022/12/02 09:20:53;;;;;;;14.95;6.18;;;;;;;;;;7387081;19;20017;-71
2022/12/02 09:23:20;;;;;;;16.88;6.60;;;;;;;;;;7387573;19;20009;-73
2022/12/02 09:25:45;;;;;;;11.23;5.25;;;;;;;;;;7387120;19;20098;-74
2022/12/02 09:28:10;;;;;;;12.98;6.93;;;;;;;;;;7389045;19;20019;-73
2022/12/02 09:30:36;;;;;;;13.32;5.88;;;;;;;;;;7387897;19;20013;-73
2022/12/02 09:33:01;;;;;;;15.27;6.57;;;;;;;;;;7387348;19;20062;-73
2022/12/02 09:35:27;;;;;;;14.90;7.78;;;;;;;;;;7391009;19;20515;-71
2022/12/02 09:37:52;;;;;;;16.08;7.15;;;;;;;;;;7387381;19;20010;-72
2022/12/02 09:40:17;;;;;;;16.77;6.25;;;;;;;;;;7391533;19;20067;-73
2022/12/02 09:42:43;;;;;;;16.17;6.32;;;;;;;;;;7387979;19;19999;-73
2022/12/02 09:45:09;;;;;;;14.48;6.93;;;;;;;;;;7391817;19;19995;-72
2022/12/02 09:47:35;;;;;;;13.07;5.72;;;;;;;;;;7387209;19;20009;-72
2022/12/02 09:50:00;;;;;;;14.32;6.22;;;;;;;;;;7391983;19;20054;-72
2022/12/02 09:52:26;;;;;;;15.48;6.32;;;;;;;;;;7391921;19;20003;-72
2022/12/02 09:54:54;;;;;;;19.88;7.22;;;;;;;;;;7389133;19;20019;-72
2022/12/02 09:57:23;;;;;;;16.33;6.60;;;;;;;;;;7390793;19;20019;-71
2022/12/02 09:59:48;;;;;;;13.45;5.60;;;;;;;;;;7388849;19;21180;-71
2022/12/02 10:02:29;;;;;;;14.40;7.30;;;;;;;;;;7389646;19;19999;-71
2022/12/02 10:04:59;;;;;;;11.98;5.80;;;;;;;;;;7390550;19;20349;-72
2022/12/02 10:07:24;;;;;;;11.82;4.90;;;;;;;;;;7389230;19;20027;-72
2022/12/02 10:09:50;;;;;;;15.32;5.63;;;;;;;;;;7390043;19;20002;-72
2022/12/02 10:12:15;;;;;;;13.13;5.10;;;;;;;;;;7392546;19;20003;-71
2022/12/02 10:14:47;;;;;;;15.48;6.10;;;;;;;;;;7389365;19;20005;-73
2022/12/02 10:17:16;;;;;;;13.70;6.28;;;;;;;;;;7388379;19;20745;-72
2022/12/02 10:19:42;;;;;;;10.93;4.68;;;;;;;;;;7386977;19;20484;-71
2022/12/02 10:22:16;;;;;;;12.07;4.90;;;;;;;;;;7391050;19;20011;-72
2022/12/02 10:24:42;;;;;;;13.65;5.78;;;;;;;;;;7388355;19;20010;-72
2022/12/02 10:27:08;;;;;;;12.32;5.43;;;;;;;;;;7386264;19;20017;-73
2022/12/02 10:29:34;;;;;;;14.18;6.47;;;;;;;;;;7388677;19;19998;-73
2022/12/02 10:32:02;;;;;;;16.17;7.00;;;;;;;;;;7386768;19;20006;-72
2022/12/02 10:34:29;;;;;;;12.57;6.25;;;;;;;;;;7389054;19;20126;-72
2022/12/02 10:36:54;;;;;;;12.32;4.72;;;;;;;;;;7385759;19;20014;-71
2022/12/02 10:39:20;;;;;;;14.43;5.55;;;;;;;;;;7389006;19;20523;-71
2022/12/02 10:41:47;;;;;;;14.52;6.38;;;;;;;;;;7387387;19;20013;-72
2022/12/02 10:44:21;;;;;;;14.27;6.10;;;;;;;;;;7389731;19;20006;-72
2022/12/02 10:46:47;;;;;;;11.25;4.65;;;;;;;;;;7384208;19;20002;-73
2022/12/02 10:49:33;;;;;;;11.73;5.05;;;;;;;;;;7389846;19;20010;-73
2022/12/02 10:52:07;;;;;;;14.63;6.22;;;;;;;;;;7390358;19;20011;-73
2022/12/02 10:54:33;;;;;;;14.13;6.05;;;;;;;;;;7387668;19;20066;-73
2022/12/02 10:57:00;;;;;;;14.05;6.07;;;;;;;;;;7385807;19;20070;-73
2022/12/02 10:59:26;;;;;;;16.33;6.55;;;;;;;;;;7391296;19;20540;-73
2022/12/02 11:01:52;;;;;;;13.35;5.70;;;;;;;;;;7393331;19;20002;-73
2022/12/02 11:04:17;;;;;;;10.20;5.18;;;;;;;;;;7390578;19;20070;-73
2022/12/02 11:06:43;;;;;;;10.50;5.15;;;;;;;;;;7391681;19;20003;-72
2022/12/02 11:09:19;;;;;;;12.30;5.95;;;;;;;;;;7387099;19;19999;-72
2022/12/02 11:11:45;;;;;;;10.80;5.93;;;;;;;;;;7388756;19;20522;-72
2022/12/02 11:14:39;;;;;;;11.85;5.63;;;;;;;;;;7391791;19;20002;-73
2022/12/02 11:17:13;;;;;;;13.35;5.78;;;;;;;;;;7389048;19;19990;-72
2022/12/02 11:19:44;;;;;;;11.80;5.68;;;;;;;;;;7391160;19;20003;-72
2022/12/02 11:22:47;;;;;;;7.88;4.45;;;;;;;;;;7390484;19;20017;-72
2022/12/02 11:25:46;;;;;;;11.95;5.97;;;;;;;;;;7389564;19;19999;-72
2022/12/02 11:28:18;;;;;;;12.30;5.55;;;;;;;;;;7389536;19;20011;-73
2022/12/02 11:30:44;;;;;;;9.95;5.13;;;;;;;;;;7389371;19;20582;-73
2022/12/02 11:33:12;;;;;;;11.73;5.97;;;;;;;;;;7390746;19;20002;-73
2022/12/02 11:36:11;;;;;;;10.18;4.75;;;;;;;;;;7388013;19;20003;-73
2022/12/02 11:38:50;;;;;;;13.02;6.75;;;;;;;;;;7389217;19;20019;-74
2022/12/02 11:41:21;;;;;;;13.48;6.00;;;;;;;;;;7387066;19;20475;-75
2022/12/02 11:43:47;;;;;;;;;;;;;;;;;;7392254;19;20002;-74
2022/12/02 11:46:18;;;;;;;12.70;5.53;;;;;;;;;;7391340;19;19931;-74
2022/12/02 11:48:54;;;;;;;14.40;6.45;;;;;;;;;;7392656;19;20224;-74
2022/12/02 11:51:40;;;;;;;12.95;6.25;;;;;;;;;;7389480;19;20022;-75
2022/12/02 11:54:14;;;;;;;11.43;6.05;;;;;;;;;;7390261;19;20006;-75
2022/12/02 11:56:41;;;;;;;10.55;5.13;;;;;;;;;;7388021;19;19998;-75
2022/12/02 11:59:28;;;;;;;14.85;6.20;;;;;;;;;;7388333;19;20753;-73
2022/12/02 12:02:13;;;;;;;12.90;5.80;;;;;;;;;;7382459;19;20006;-74
2022/12/02 12:04:38;;;;;;;11.30;5.60;;;;;;;;;;7390638;19;19998;-74
2022/12/02 12:07:04;;;;;;;11.60;5.90;;;;;;;;;;7384661;19;20005;-73
2022/12/02 12:09:29;;;;;;;14.75;7.40;;;;;;;;;;7391615;19;19991;-78
2022/12/02 12:12:15;;;;;;;14.15;6.20;;;;;;;;;;7387515;19;20064;-73
2022/12/02 12:14:53;;;;;;;10.52;5.68;;;;;;;;;;7390240;19;20023;-73
2022/12/02 12:17:32;;;;;;;13.77;5.47;;;;;;;;;;7390393;19;20015;-72
2022/12/02 12:19:58;;;;;;;14.80;6.63;;;;;;;;;;7385866;19;19999;-73
2022/12/02 12:22:27;;;;;;;13.30;6.45;;;;;;;;;;7389090;19;19995;-74
2022/12/02 12:24:53;;;;;;;17.48;7.13;;;;;;;;;;7390362;19;20298;-75
2022/12/02 12:27:35;;;;;;;13.23;6.43;;;;;;;;;;7389206;19;20010;-75
2022/12/02 12:30:03;;;;;;;13.80;6.68;;;;;;;;;;7389450;19;19995;-77
2022/12/02 12:32:29;;;;;;;14.35;6.47;;;;;;;;;;7389682;19;19994;-75
2022/12/02 12:34:54;;;;;;;15.52;7.40;;;;;;;;;;7390263;19;19998;-73
2022/12/02 12:37:19;;;;;;;14.25;6.68;;;;;;;;;;7388690;19;19991;-74
2022/12/02 12:39:45;;;;;;;13.73;6.82;;;;;;;;;;7390066;19;20480;-77
2022/12/02 12:42:10;;;;;;;13.13;6.70;;;;;;;;;;7390265;19;20012;-77
2022/12/02 12:44:35;;;;;;;16.30;6.80;;;;;;;;;;7390539;19;20065;-72
2022/12/02 12:47:03;;;;;;;14.98;6.22;;;;;;;;;;7387347;19;20055;-71
2022/12/02 12:49:28;;;;;;;12.20;6.63;;;;;;;;;;7390130;19;19987;-71
2022/12/02 12:51:54;;;;;;;16.70;7.72;;;;;;;;;;7389929;19;20055;-73
2022/12/02 12:54:19;;;;;;;13.65;5.82;;;;;;;;;;7389253;19;20364;-73
2022/12/02 12:56:44;;;;;;;15.25;7.22;;;;;;;;;;7389805;19;19995;-74
2022/12/02 12:59:09;;;;;;;14.10;7.20;;;;;;;;;;7389096;19;19997;-73
2022/12/02 13:01:36;;;;;;;15.27;6.55;;;;;;;;;;7387355;19;20000;-73
2022/12/02 13:04:02;;;;;;;14.85;7.47;;;;;;;;;;7388403;19;19998;-73
2022/12/02 13:06:27;;;;;;;17.50;7.00;;;;;;;;;;7388597;19;20346;-76
2022/12/02 13:08:52;;;;;;;13.30;5.93;;;;;;;;;;7389843;19;19995;-76
2022/12/02 13:11:18;;;;;;;19.20;7.50;;;;;;;;;;7388582;19;19995;-75
2022/12/02 13:13:43;;;;;;;15.32;7.18;;;;;;;;;;7386290;19;20002;-75
2022/12/02 13:16:08;;;;;;;16.10;8.20;;;;;;;;;;7389062;19;19994;-74
2022/12/02 13:18:34;;;;;;;14.18;7.95;;;;;;;;;;7389074;19;20536;-74
2022/12/02 13:20:59;;;;;;;16.67;7.90;;;;;;;;;;7389159;19;20452;-74
2022/12/02 13:23:24;;;;;;;16.77;8.07;;;;;;;;;;7385941;19;20010;-75
2022/12/02 13:25:50;;;;;;;17.63;7.57;;;;;;;;;;7387842;19;19999;-75
2022/12/02 13:28:15;;;;;;;17.17;7.60;;;;;;;;;;7388930;19;20002;-75
2022/12/02 13:30:40;;;;;;;14.88;6.95;;;;;;;;;;7390055;19;20470;-75
2022/12/02 13:33:05;;;;;;;16.63;7.05;;;;;;;;;;7393650;19;20005;-76
2022/12/02 13:35:31;;;;;;;14.82;7.20;;;;;;;;;;7396551;19;19999;-76
2022/12/02 13:37:56;;;;;;;15.70;7.70;;;;;;;;;;7394719;19;20002;-77
2022/12/02 13:40:21;;;;;;;17.52;7.70;;;;;;;;;;7393178;19;20656;-74
2022/12/02 13:42:47;;;;;;;21.35;8.43;;;;;;;;;;7393947;19;20466;-75
2022/12/02 13:45:12;;;;;;;15.02;7.00;;;;;;;;;;7395898;19;20033;-73
2022/12/02 13:47:37;;;;;;;18.63;8.02;;;;;;;;;;7392312;19;19990;-76
2022/12/02 13:50:04;;;;;;;18.60;8.07;;;;;;;;;;7393513;19;20058;-74
2022/12/02 13:52:30;;;;;;;13.40;6.85;;;;;;;;;;7394611;19;20006;-72
2022/12/02 13:54:58;;;;;;;18.33;7.35;;;;;;;;;;7392172;19;20508;-73
2022/12/02 13:57:23;;;;;;;15.35;7.65;;;;;;;;;;7393702;19;20007;-73
2022/12/02 13:59:48;;;;;;;12.50;6.38;;;;;;;;;;7390172;19;20010;-73
2022/12/02 14:02:14;;;;;;;11.60;5.78;;;;;;;;;;7394743;19;20012;-74
2022/12/02 14:04:39;;;;;;;13.88;7.18;;;;;;;;;;7394766;19;19998;-74
2022/12/02 14:07:05;;;;;;;15.07;7.13;;;;;;;;;;7393280;19;20006;-75
2022/12/02 14:09:30;;;;;;;16.08;6.78;;;;;;;;;;7395505;19;19994;-75
2022/12/02 14:11:55;;;;;;;16.67;7.72;;;;;;;;;;7393367;19;20010;-74
2022/12/02 14:14:22;;;;;;;14.75;6.95;;;;;;;;;;7393775;19;20455;-74
2022/12/02 14:16:48;;;;;;;19.45;7.18;;;;;;;;;;7389655;19;19995;-79
2022/12/02 14:19:13;;;;;;;15.57;7.72;;;;;;;;;;7394020;19;20003;-76
2022/12/02 14:21:38;;;;;;;13.73;7.03;;;;;;;;;;7393966;19;20023;-75
2022/12/02 14:24:04;;;;;;;15.05;6.95;;;;;;;;;;7391377;19;19994;-72
2022/12/02 14:26:29;;;;;;;20.33;7.88;;;;;;;;;;7394091;19;20510;-74
2022/12/02 14:28:55;;;;;;;14.90;6.95;;;;;;;;;;7394097;19;20458;-75
2022/12/02 14:31:20;;;;;;;14.07;7.32;;;;;;;;;;7391716;19;20005;-73